Time;durP1;ratioP1;P1;durP2;ratioP2;P2;SDS_P1;SDS_P2;PMS_P1;PMS_P2;Temp;Humidity;BMP_temperature;BMP_pressure;BME280_temperature;BME280_humidity;BME280_pressure;Samples;Min_cycle;Max_cycle;Signal;HPM_P1;HPM_P2
2022/12/13 00:00:27;;;;;;;;;;;;;;;18.87;43.50;100319.80;102076;1333;61276;-84
2022/12/13 00:02:54;;;;;;;;;;;;;;;18.87;43.50;100319.60;102063;1327;61316;-84
2022/12/13 00:05:19;;;;;;;;;;;;;;;18.87;43.46;100317.82;102089;1328;61261;-84
2022/12/13 00:07:45;;;;;;;;;;;;;;;18.88;43.52;100323.15;102081;1328;61373;-84
2022/12/13 00:35:34;;;;;;;;;;;;;;;18.88;43.55;100321.15;102067;1332;71183;-83
2022/12/13 00:38:00;;;;;;;;;;;;;;;18.89;43.48;100325.05;102053;1327;74607;-85
2022/12/13 00:40:50;;;;;;;;;;;;;;;18.88;43.38;100327.04;102049;1333;61321;-84
2022/12/13 00:43:15;;;;;;;;;;;;;;;18.88;43.52;100331.49;101835;1340;61274;-83
2022/12/13 00:45:41;;;;;;;;;;;;;;;18.89;43.50;100332.02;101755;1341;61414;-84
2022/12/13 00:48:07;;;;;;;;;;;;;;;18.90;43.46;100333.20;101732;1339;61477;-84
2022/12/13 00:50:33;;;;;;;;;;;;;;;18.90;43.46;100332.44;101819;1338;61146;-83
2022/12/13 00:52:58;;;;;;;;;;;;;;;18.90;43.43;100329.61;101832;1334;61370;-84
2022/12/13 00:55:24;;;;;;;;;;;;;;;18.90;43.41;100332.99;101852;1333;61324;-84
2022/12/13 00:57:49;;;;;;;;;;;;;;;18.90;43.28;100336.00;101803;1325;73496;-84
2022/12/13 01:00:15;;;;;;;;;;;;;;;18.91;43.39;100331.16;101808;1335;61337;-84
2022/12/13 01:02:42;;;;;;;;;;;;;;;18.91;43.41;100334.55;101854;1331;61289;-83
2022/12/13 01:05:08;;;;;;;;;;;;;;;18.90;43.34;100337.24;101859;1338;61332;-84
2022/12/13 01:07:33;;;;;;;;;;;;;;;18.90;43.52;100340.83;101890;1335;61344;-84
2022/12/13 01:09:58;;;;;;;;;;;;;;;18.91;43.38;100341.87;101831;1337;61406;-84
2022/12/13 01:12:24;;;;;;;;;;;;;;;18.90;43.45;100338.15;101932;1335;61299;-85
2022/12/13 01:14:49;;;;;;;;;;;;;;;18.90;43.32;100340.13;101872;1339;59429;-84
2022/12/13 01:17:15;;;;;;;;;;;;;;;18.90;43.43;100338.48;101906;1335;61368;-84
2022/12/13 01:19:40;;;;;;;;;;;;;;;18.90;43.41;100336.88;101883;1333;61758;-84
2022/12/13 01:22:06;;;;;;;;;;;;;;;18.90;43.31;100339.75;102102;1327;61314;-84
2022/12/13 01:24:32;;;;;;;;;;;;;;;18.91;43.43;100336.33;102062;1319;75393;-84
2022/12/13 01:27:23;;;;;;;;;;;;;;;18.90;43.35;100336.36;102109;1326;61269;-84
2022/12/13 01:29:49;;;;;;;;;;;;;;;18.91;43.32;100342.02;101905;1336;61288;-84
2022/12/13 01:32:14;;;;;;;;;;;;;;;18.91;43.25;100335.61;101824;1336;61314;-84
2022/12/13 01:34:39;;;;;;;;;;;;;;;18.91;43.27;100336.48;101836;1335;61273;-84
2022/12/13 01:37:05;;;;;;;;;;;;;;;18.91;43.24;100336.68;101840;1339;61328;-84
2022/12/13 01:39:30;;;;;;;;;;;;;;;18.91;43.26;100334.89;101877;1331;61853;-84
2022/12/13 01:41:58;;;;;;;;;;;;;;;18.92;43.52;100338.41;101843;1335;61300;-84
2022/12/13 01:44:42;;;;;;;;;;;;;;;18.91;43.35;100336.16;101855;1332;72553;-84
2022/12/13 01:47:08;;;;;;;;;;;;;;;18.91;43.39;100334.68;101904;1330;74811;-84
2022/12/13 01:49:33;;;;;;;;;;;;;;;18.91;43.30;100336.66;101897;1335;61576;-84
2022/12/13 01:52:00;;;;;;;;;;;;;;;18.91;43.32;100335.41;101854;1338;61303;-84
2022/12/13 01:54:32;;;;;;;;;;;;;;;18.91;43.30;100334.15;101870;1338;61299;-84
2022/12/13 01:56:57;;;;;;;;;;;;;;;18.92;43.42;100331.81;101930;1331;74468;-84
2022/12/13 01:59:23;;;;;;;;;;;;;;;18.91;43.22;100327.36;101838;1332;61394;-83
2022/12/13 02:01:50;;;;;;;;;;;;;;;18.92;43.21;100328.41;101869;1339;61379;-83
2022/12/13 02:04:17;;;;;;;;;;;;;;;18.92;43.21;100327.14;101854;1332;61160;-83
2022/12/13 02:06:43;;;;;;;;;;;;;;;18.92;43.34;100324.30;101937;1332;61315;-83
2022/12/13 02:09:08;;;;;;;;;;;;;;;18.92;43.20;100330.35;102054;1328;61434;-83
2022/12/13 02:11:34;;;;;;;;;;;;;;;18.92;43.19;100334.43;102079;1329;61250;-83
2022/12/13 02:13:59;;;;;;;;;;;;;;;18.92;43.28;100335.00;102173;1329;61660;-84
2022/12/13 02:16:39;;;;;;;;;;;;;;;18.92;43.22;100334.62;102093;1332;72780;-84
2022/12/13 02:19:17;;;;;;;;;;;;;;;18.92;43.10;100348.15;102082;1326;75395;-84
2022/12/13 02:21:46;;;;;;;;;;;;;;;18.93;43.32;100343.85;102130;1332;61143;-84
2022/12/13 02:24:17;;;;;;;;;;;;;;;18.92;43.17;100341.37;102063;1326;61375;-84
2022/12/13 02:27:01;;;;;;;;;;;;;;;18.92;43.25;100339.92;102099;1325;72476;-84
2022/12/13 02:29:36;;;;;;;;;;;;;;;18.93;43.14;100333.87;102107;1326;75524;-85
2022/12/13 02:32:01;;;;;;;;;;;;;;;18.93;43.15;100337.97;102072;1332;61282;-84
2022/12/13 02:34:30;;;;;;;;;;;;;;;18.92;43.15;100340.30;102066;1329;61396;-84
2022/12/13 02:36:56;;;;;;;;;;;;;;;18.92;43.18;100338.20;102052;1326;72426;-84
2022/12/13 02:39:23;;;;;;;;;;;;;;;18.92;43.24;100334.80;102091;1329;74416;-85
2022/12/13 02:41:49;;;;;;;;;;;;;;;18.91;43.17;100337.52;102074;1333;61272;-85
2022/12/13 02:44:19;;;;;;;;;;;;;;;18.92;43.13;100344.63;102066;1328;61237;-84
2022/12/13 02:46:51;;;;;;;;;;;;;;;18.92;43.18;100345.35;102115;1325;72687;-85
2022/12/13 02:49:16;;;;;;;;;;;;;;;18.92;43.19;100346.94;102070;1327;75614;-85
2022/12/13 02:51:42;;;;;;;;;;;;;;;18.92;43.07;100347.83;102064;1327;61285;-84
2022/12/13 02:54:07;;;;;;;;;;;;;;;18.92;43.13;100345.50;102066;1332;61283;-84
2022/12/13 02:56:33;;;;;;;;;;;;;;;18.92;43.12;100352.79;102014;1331;61362;-84
2022/12/13 02:58:58;;;;;;;;;;;;;;;18.92;43.11;100351.91;102060;1333;61361;-84
2022/12/13 03:01:28;;;;;;;;;;;;;;;18.93;43.09;100359.71;102077;1327;61274;-84
2022/12/13 03:04:06;;;;;;;;;;;;;;;18.92;43.04;100364.22;102056;1329;61270;-85
2022/12/13 03:06:55;;;;;;;;;;;;;;;18.92;43.03;100366.34;102077;1328;61887;-84
2022/12/13 03:09:25;;;;;;;;;;;;;;;18.93;43.05;100369.34;102067;1320;72351;-84
2022/12/13 03:14:44;;;;;;;;;;;;;;;18.93;43.08;100383.23;102135;1324;61203;-84
2022/12/13 03:17:10;;;;;;;;;;;;;;;18.93;43.06;100386.98;102065;1329;61274;-84
2022/12/13 03:19:35;;;;;;;;;;;;;;;18.93;42.99;100395.54;102045;1323;61290;-84
2022/12/13 03:22:01;;;;;;;;;;;;;;;18.93;43.01;100398.39;102069;1329;61299;-84
2022/12/13 03:24:26;;;;;;;;;;;;;;;18.93;43.06;100398.91;102053;1324;61318;-83
2022/12/13 03:26:51;;;;;;;;;;;;;;;18.94;43.01;100403.17;102085;1323;61289;-83
2022/12/13 03:29:17;;;;;;;;;;;;;;;18.93;42.98;100396.95;102087;1329;61418;-85
2022/12/13 03:31:42;;;;;;;;;;;;;;;18.94;42.97;100402.11;102076;1327;61426;-84
2022/12/13 03:34:08;;;;;;;;;;;;;;;18.94;42.97;100405.85;102042;1329;61777;-84
2022/12/13 03:36:33;;;;;;;;;;;;;;;18.94;43.00;100409.39;102114;1329;61299;-84
2022/12/13 03:38:58;;;;;;;;;;;;;;;18.94;42.97;100409.23;102120;1332;61312;-84
2022/12/13 03:41:30;;;;;;;;;;;;;;;18.94;42.96;100419.39;102065;1333;61311;-84
2022/12/13 03:43:56;;;;;;;;;;;;;;;18.95;42.84;100425.23;102065;1330;72597;-84
2022/12/13 03:46:24;;;;;;;;;;;;;;;18.94;42.96;100421.52;102114;1326;61311;-84
2022/12/13 03:48:49;;;;;;;;;;;;;;;18.95;42.74;100427.38;102119;1326;61213;-84
2022/12/13 03:51:15;;;;;;;;;;;;;;;18.95;42.86;100428.25;102094;1327;61292;-84
2022/12/13 03:53:40;;;;;;;;;;;;;;;18.95;43.00;100430.56;102112;1319;61404;-84
2022/12/13 03:56:06;;;;;;;;;;;;;;;18.95;42.77;100432.34;102048;1319;60249;-84
2022/12/13 03:58:32;;;;;;;;;;;;;;;18.96;42.97;100432.48;102095;1333;61402;-83
2022/12/13 04:00:57;;;;;;;;;;;;;;;18.96;42.85;100431.23;102069;1326;61336;-83
2022/12/13 04:03:24;;;;;;;;;;;;;;;18.96;42.98;100434.27;102062;1326;61344;-84
2022/12/13 04:05:49;;;;;;;;;;;;;;;18.96;42.84;100431.94;102039;1325;61318;-84
2022/12/13 04:08:14;;;;;;;;;;;;;;;18.96;42.91;100429.80;102060;1327;61287;-84
2022/12/13 04:10:40;;;;;;;;;;;;;;;18.96;42.83;100425.17;102062;1327;59280;-84
2022/12/13 04:15:49;;;;;;;;;;;;;;;18.96;42.77;100430.33;102070;1327;61228;-84
2022/12/13 04:18:15;;;;;;;;;;;;;;;18.96;42.76;100430.33;102042;1329;61325;-84
2022/12/13 04:20:41;;;;;;;;;;;;;;;18.96;42.70;100426.05;102044;1329;61351;-84
2022/12/13 04:23:06;;;;;;;;;;;;;;;18.96;42.81;100429.27;102072;1329;61231;-84
2022/12/13 04:25:31;;;;;;;;;;;;;;;18.96;42.74;100435.70;102107;1327;61945;-84
2022/12/13 04:27:57;;;;;;;;;;;;;;;18.95;42.72;100442.85;102101;1329;61199;-83
2022/12/13 04:30:22;;;;;;;;;;;;;;;18.96;42.74;100446.36;102094;1327;61825;-84
2022/12/13 04:32:48;;;;;;;;;;;;;;;18.96;42.66;100448.17;102072;1320;61302;-84
2022/12/13 04:35:13;;;;;;;;;;;;;;;18.96;42.76;100447.96;102087;1329;61318;-84
2022/12/13 04:38:02;;;;;;;;;;;;;;;18.96;42.68;100450.49;102102;1327;61247;-83
2022/12/13 04:40:27;;;;;;;;;;;;;;;18.97;42.80;100449.70;101882;1325;61292;-83
2022/12/13 04:42:53;;;;;;;;;;;;;;;18.96;42.66;100448.30;101868;1332;61430;-83
2022/12/13 04:45:19;;;;;;;;;;;;;;;18.96;42.75;100449.02;101875;1332;61347;-84
2022/12/13 04:47:44;;;;;;;;;;;;;;;18.97;42.59;100455.92;101844;1335;61319;-83
2022/12/13 04:50:10;;;;;;;;;;;;;;;18.97;42.72;100456.83;101868;1337;61325;-83
2022/12/13 04:52:36;;;;;;;;;;;;;;;18.97;42.53;100458.05;101923;1328;61271;-83
2022/12/13 04:55:02;;;;;;;;;;;;;;;18.97;42.63;100461.80;101879;1337;73583;-83
2022/12/13 04:57:27;;;;;;;;;;;;;;;18.97;42.65;100459.17;101871;1335;61422;-85
2022/12/13 04:59:53;;;;;;;;;;;;;;;18.97;42.45;100461.83;101901;1330;61405;-84
2022/12/13 05:02:18;;;;;;;;;;;;;;;18.97;42.51;100460.95;101853;1337;61306;-84
2022/12/13 05:04:44;;;;;;;;;;;;;;;18.96;42.53;100460.98;101871;1332;61314;-85
2022/12/13 05:07:09;;;;;;;;;;;;;;;18.96;42.43;100461.14;101812;1334;73326;-84
2022/12/13 05:09:35;;;;;;;;;;;;;;;18.96;42.37;100463.28;101752;1337;61454;-84
2022/12/13 05:12:00;;;;;;;;;;;;;;;18.96;42.40;100467.02;101811;1332;61330;-85
2022/12/13 05:14:28;;;;;;;;;;;;;;;18.97;42.41;100473.42;101879;1336;61554;-84
2022/12/13 05:16:53;;;;;;;;;;;;;;;18.96;42.32;100471.52;101870;1333;59267;-84
2022/12/13 05:19:20;;;;;;;;;;;;;;;18.96;42.30;100467.41;102074;1329;61338;-85
2022/12/13 05:21:45;;;;;;;;;;;;;;;18.95;42.22;100466.77;102102;1325;61297;-84
2022/12/13 05:24:11;;;;;;;;;;;;;;;18.93;42.14;100475.77;102076;1327;61318;-85
2022/12/13 05:26:36;;;;;;;;;;;;;;;18.90;42.14;100482.61;102063;1323;61427;-84
2022/12/13 05:29:02;;;;;;;;;;;;;;;18.85;42.23;100485.71;102027;1332;61761;-84
2022/12/13 05:31:27;;;;;;;;;;;;;;;18.82;42.07;100486.16;101953;1320;61430;-84
2022/12/13 05:33:53;;;;;;;;;;;;;;;18.79;41.85;100491.30;101933;1310;61517;-85
2022/12/13 05:36:18;;;;;;;;;;;;;;;18.78;41.93;100494.63;102040;1320;61329;-85
2022/12/13 05:38:44;;;;;;;;;;;;;;;18.75;41.72;100497.28;102043;1326;61185;-86
2022/12/13 05:41:15;;;;;;;;;;;;;;;18.71;41.62;100499.52;101836;1324;63019;-86
2022/12/13 05:43:41;;;;;;;;;;;;;;;18.67;41.48;100505.14;101781;1316;74485;-84
2022/12/13 05:46:06;;;;;;;;;;;;;;;18.63;41.55;100512.20;101873;1310;61311;-84
2022/12/13 05:48:32;;;;;;;;;;;;;;;18.57;41.35;100519.66;101811;1320;61360;-84
2022/12/13 05:50:57;;;;;;;;;;;;;;;18.53;41.14;100528.65;101939;1320;61862;-84
2022/12/13 05:53:23;;;;;;;;;;;;;;;18.49;41.10;100530.70;101653;1317;61343;-83
2022/12/13 05:55:49;;;;;;;;;;;;;;;18.46;41.20;100538.21;101750;1310;74642;-84
2022/12/13 05:58:17;;;;;;;;;;;;;;;18.41;41.20;100538.86;101575;1311;61151;-83
2022/12/13 06:00:43;;;;;;;;;;;;;;;18.37;41.03;100542.72;101657;1316;61175;-82
2022/12/13 06:03:10;;;;;;;;;;;;;;;18.32;41.06;100542.48;101559;1310;61440;-83
2022/12/13 06:05:36;;;;;;;;;;;;;;;18.28;41.07;100547.01;101630;1318;74452;-83
2022/12/13 06:08:01;;;;;;;;;;;;;;;18.24;41.25;100547.44;101524;1310;61625;-83
2022/12/13 06:10:27;;;;;;;;;;;;;;;18.21;41.11;100543.17;101564;1317;61339;-83
2022/12/13 06:12:52;;;;;;;;;;;;;;;18.19;41.16;100545.95;101613;1310;61450;-84
2022/12/13 06:15:17;;;;;;;;;;;;;;;18.18;41.03;100550.65;101524;1313;61445;-83
2022/12/13 06:17:43;;;;;;;;;;;;;;;18.20;41.01;100558.74;101621;1310;61296;-84
2022/12/13 06:20:10;;;;;;;;;;;;;;;18.22;40.87;100564.11;101608;1314;61329;-84
2022/12/13 06:22:35;;;;;;;;;;;;;;;18.26;40.89;100565.27;101514;1310;61334;-84
2022/12/13 06:25:00;;;;;;;;;;;;;;;18.30;40.69;100570.04;101660;1310;61250;-84
2022/12/13 06:27:26;;;;;;;;;;;;;;;18.34;40.71;100576.88;101973;1317;61774;-83
2022/12/13 06:29:51;;;;;;;;;;;;;;;18.38;40.51;100578.63;102080;1314;61331;-84
2022/12/13 06:32:17;;;;;;;;;;;;;;;18.41;40.51;100582.15;101746;1310;62192;-84
2022/12/13 06:34:43;;;;;;;;;;;;;;;18.45;40.45;100591.41;101669;1317;61614;-84
2022/12/13 06:37:10;;;;;;;;;;;;;;;18.48;40.41;100590.13;101681;1310;61293;-84
2022/12/13 06:39:36;;;;;;;;;;;;;;;18.50;40.29;100588.55;101716;1310;61261;-85
2022/12/13 06:42:04;;;;;;;;;;;;;;;18.52;40.32;100594.46;101514;1316;61315;-83
2022/12/13 06:44:30;;;;;;;;;;;;;;;18.54;40.14;100598.96;101450;1320;61327;-82
2022/12/13 06:46:55;;;;;;;;;;;;;;;18.56;40.16;100603.86;101421;1310;61316;-83
2022/12/13 06:49:21;;;;;;;;;;;;;;;18.59;40.13;100604.92;101549;1317;61413;-83
2022/12/13 06:51:46;;;;;;;;;;;;;;;18.61;40.18;100613.16;101420;1313;61334;-84
2022/12/13 06:54:12;;;;;;;;;;;;;;;18.63;40.28;100617.86;101343;1310;61648;-85
2022/12/13 06:56:37;;;;;;;;;;;;;;;18.59;39.98;100618.11;101515;1310;61273;-83
2022/12/13 06:59:03;;;;;;;;;;;;;;;18.54;40.14;100616.31;101515;1310;61330;-85
2022/12/13 07:01:55;;;;;;;;;;;;;;;18.52;40.32;100619.83;101585;1317;61739;-83
2022/12/13 07:04:20;;;;;;;;;;;;;;;18.49;40.33;100618.73;101307;1316;61271;-83
2022/12/13 07:06:45;;;;;;;;;;;;;;;18.47;40.41;100619.08;101217;1316;61289;-84
2022/12/13 07:09:11;;;;;;;;;;;;;;;18.47;40.43;100621.38;101222;1316;61318;-82
2022/12/13 07:11:36;;;;;;;;;;;;;;;18.48;40.44;100627.55;101288;1317;62115;-82
2022/12/13 07:14:02;;;;;;;;;;;;;;;18.50;40.29;100627.79;101086;1319;61529;-83
2022/12/13 07:16:28;;;;;;;;;;;;;;;18.51;40.27;100627.34;101260;1316;61365;-82
2022/12/13 07:18:54;;;;;;;;;;;;;;;18.53;40.21;100632.42;101116;1316;61322;-82
2022/12/13 07:21:20;;;;;;;;;;;;;;;18.53;40.25;100640.60;101190;1323;61317;-83
2022/12/13 07:23:49;;;;;;;;;;;;;;;18.51;40.23;100642.85;101192;1316;61278;-82
2022/12/13 07:26:14;;;;;;;;;;;;;;;18.45;40.41;100648.21;101495;1323;61205;-82
2022/12/13 07:28:40;;;;;;;;;;;;;;;18.37;40.26;100647.45;101169;1319;61853;-83
2022/12/13 07:31:06;;;;;;;;;;;;;;;18.26;40.24;100647.07;101184;1322;61438;-83
2022/12/13 07:33:32;;;;;;;;;;;;;;;18.16;40.20;100649.30;101124;1316;61314;-83
2022/12/13 07:36:00;;;;;;;;;;;;;;;18.07;40.12;100652.67;100944;1319;61429;-84
2022/12/13 07:38:27;;;;;;;;;;;;;;;18.00;40.24;100653.80;101129;1323;61220;-85
2022/12/13 07:40:54;;;;;;;;;;;;;;;17.93;40.17;100648.88;101127;1317;61906;-84
2022/12/13 07:43:20;;;;;;;;;;;;;;;17.86;40.28;100653.70;101549;1313;61306;-84
2022/12/13 07:45:48;;;;;;;;;;;;;;;17.82;40.14;100659.50;101409;1316;61593;-84
2022/12/13 07:48:13;;;;;;;;;;;;;;;17.76;39.99;100669.08;101450;1313;61312;-84
2022/12/13 07:50:39;;;;;;;;;;;;;;;17.72;40.05;100673.57;101446;1310;61880;-84
2022/12/13 07:53:05;;;;;;;;;;;;;;;17.68;40.05;100676.14;101301;1313;61449;-83
2022/12/13 07:55:32;;;;;;;;;;;;;;;17.62;39.82;100682.19;101267;1313;61290;-84
2022/12/13 07:58:07;;;;;;;;;;;;;;;17.56;39.72;100686.94;101413;1316;61547;-84
2022/12/13 08:00:32;;;;;;;;;;;;;;;17.55;39.65;100694.14;101506;1313;73531;-84
2022/12/13 08:02:58;;;;;;;;;;;;;;;17.53;39.70;100702.27;101496;1313;61256;-84
2022/12/13 08:05:27;;;;;;;;;;;;;;;17.51;39.52;100703.08;101430;1313;61471;-83
2022/12/13 08:07:52;;;;;;;;;;;;;;;17.50;39.74;100709.23;101542;1310;61172;-84
2022/12/13 08:10:19;;;;;;;;;;;;;;;17.51;39.71;100713.65;101540;1313;70242;-86
2022/12/13 08:12:44;;;;;;;;;;;;;;;17.51;39.55;100722.33;101458;1314;61315;-83
2022/12/13 08:15:10;;;;;;;;;;;;;;;17.52;39.56;100721.22;101522;1310;61330;-83
2022/12/13 08:17:37;;;;;;;;;;;;;;;17.54;39.63;100723.55;100791;1317;907637;-82
2022/12/13 08:20:03;;;;;;;;;;;;;;;17.60;39.69;100729.67;101478;1316;61355;-82
2022/12/13 08:22:28;;;;;;;;;;;;;;;17.67;39.66;100733.72;101507;1317;61299;-82
2022/12/13 08:24:54;;;;;;;;;;;;;;;17.73;39.64;100735.47;102145;1316;61385;-83
2022/12/13 08:27:19;;;;;;;;;;;;;;;17.81;39.59;100738.55;102131;1318;59359;-82
2022/12/13 08:29:44;;;;;;;;;;;;;;;17.87;39.81;100738.73;102084;1317;61854;-82
2022/12/13 08:32:10;;;;;;;;;;;;;;;17.93;39.78;100743.24;101983;1321;61376;-82
2022/12/13 08:34:36;;;;;;;;;;;;;;;17.99;39.84;100746.30;101975;1310;61666;-82
2022/12/13 08:37:01;;;;;;;;;;;;;;;18.04;40.00;100748.82;102009;1320;61372;-83
2022/12/13 08:39:27;;;;;;;;;;;;;;;18.08;39.81;100747.52;102025;1318;61404;-83
2022/12/13 08:41:52;;;;;;;;;;;;;;;18.09;39.95;100745.51;102099;1317;61333;-84
2022/12/13 08:44:18;;;;;;;;;;;;;;;18.10;40.08;100751.70;102117;1310;59382;-83
2022/12/13 08:46:44;;;;;;;;;;;;;;;18.10;40.05;100750.65;102016;1317;59464;-83
2022/12/13 08:49:10;;;;;;;;;;;;;;;18.09;40.03;100747.98;102095;1317;61366;-83
2022/12/13 08:51:35;;;;;;;;;;;;;;;18.09;40.07;100747.62;102043;1317;61550;-82
2022/12/13 08:54:01;;;;;;;;;;;;;;;18.10;40.12;100749.92;102008;1320;59969;-82
2022/12/13 08:56:28;;;;;;;;;;;;;;;18.09;40.05;100747.09;101977;1317;61335;-83
2022/12/13 08:58:54;;;;;;;;;;;;;;;18.10;40.05;100751.14;101974;1317;74561;-82
2022/12/13 09:01:19;;;;;;;;;;;;;;;18.09;40.24;100750.11;102044;1310;61279;-82
2022/12/13 09:03:45;;;;;;;;;;;;;;;18.11;40.27;100743.84;102048;1310;59800;-82
2022/12/13 09:06:11;;;;;;;;;;;;;;;18.10;40.13;100746.00;102150;1324;59846;-84
2022/12/13 09:08:37;;;;;;;;;;;;;;;18.07;40.39;100744.89;102029;1320;59330;-83
2022/12/13 09:11:02;;;;;;;;;;;;;;;18.07;40.59;100741.72;102146;1316;61303;-84
2022/12/13 09:13:54;;;;;;;;;;;;;;;18.05;40.79;100735.44;102176;1316;60121;-83
2022/12/13 09:16:22;;;;;;;;;;;;;;;18.02;40.81;100739.15;101757;1316;61326;-83
2022/12/13 09:18:48;;;;;;;;;;;;;;;18.01;40.94;100742.39;101576;1324;72655;-83
2022/12/13 09:21:13;;;;;;;;;;;;;;;18.04;40.85;100739.77;101781;1324;61445;-84
2022/12/13 09:23:40;;;;;;;;;;;;;;;18.06;40.92;100741.59;101748;1316;59337;-83
2022/12/13 09:26:06;;;;;;;;;;;;;;;18.09;40.95;100738.58;101822;1316;61418;-84
2022/12/13 09:28:32;;;;;;;;;;;;;;;18.11;40.87;100736.67;101675;1323;61430;-84
2022/12/13 09:30:57;;;;;;;;;;;;;;;18.15;40.85;100736.08;101705;1323;61406;-84
2022/12/13 09:33:22;;;;;;;;;;;;;;;18.18;40.80;100731.27;101868;1316;59825;-82
2022/12/13 09:35:48;;;;;;;;;;;;;;;18.20;40.82;100728.27;101759;1322;61448;-82
2022/12/13 09:38:14;;;;;;;;;;;;;;;18.23;40.97;100728.31;101813;1326;61327;-83
2022/12/13 09:40:40;;;;;;;;;;;;;;;18.26;40.95;100726.30;101789;1324;61410;-83
2022/12/13 09:43:05;;;;;;;;;;;;;;;18.29;40.98;100719.95;101694;1318;61318;-82
2022/12/13 09:45:32;;;;;;;;;;;;;;;18.31;40.89;100715.19;101800;1324;62751;-83
2022/12/13 09:47:57;;;;;;;;;;;;;;;18.32;41.03;100711.36;101701;1324;61281;-83
2022/12/13 09:50:24;;;;;;;;;;;;;;;18.34;41.21;100709.64;101785;1324;61313;-83
2022/12/13 09:52:50;;;;;;;;;;;;;;;18.38;41.27;100711.94;101720;1317;72705;-83
2022/12/13 09:55:17;;;;;;;;;;;;;;;18.40;41.25;100710.71;102083;1318;60121;-83
2022/12/13 09:57:43;;;;;;;;;;;;;;;18.41;41.32;100706.15;102105;1317;61170;-82
2022/12/13 10:00:11;;;;;;;;;;;;;;;18.44;41.34;100701.39;102129;1317;61369;-84
2022/12/13 10:02:41;;;;;;;;;;;;;;;18.45;41.10;100695.27;102010;1314;74005;-83
2022/12/13 10:05:17;;;;;;;;;;;;;;;18.41;41.26;100688.36;102081;1317;75871;-84
2022/12/13 10:07:42;;;;;;;;;;;;;;;18.37;41.29;100681.52;102121;1314;60907;-83
2022/12/13 10:10:09;;;;;;;;;;;;;;;18.36;41.53;100678.91;101860;1316;59848;-84
2022/12/13 10:12:35;;;;;;;;;;;;;;;18.31;41.43;100678.11;101545;1313;61381;-83
2022/12/13 10:15:00;;;;;;;;;;;;;;;18.23;41.26;100680.77;101528;1310;61315;-83
2022/12/13 10:17:27;;;;;;;;;;;;;;;18.20;41.47;100682.52;101522;1317;61414;-84
2022/12/13 10:19:53;;;;;;;;;;;;;;;18.20;41.19;100679.67;101747;1317;61229;-84
2022/12/13 10:22:19;;;;;;;;;;;;;;;18.22;41.20;100676.19;101701;1310;61284;-83
2022/12/13 10:24:59;;;;;;;;;;;;;;;18.24;41.25;100676.76;101487;1313;61543;-84
2022/12/13 10:27:32;;;;;;;;;;;;;;;18.27;40.96;100676.20;102977;1317;61122;-84
2022/12/13 10:30:01;;;;;;;;;;;;;;;18.30;41.10;100680.86;101517;1310;61297;-84
2022/12/13 10:32:26;;;;;;;;;;;;;;;18.32;41.08;100681.05;101540;1310;72705;-85
2022/12/13 10:34:54;;;;;;;;;;;;;;;18.31;41.02;100679.01;101547;1318;61466;-83
2022/12/13 10:37:23;;;;;;;;;;;;;;;18.30;41.11;100675.15;101556;1319;61410;-83
2022/12/13 10:39:48;;;;;;;;;;;;;;;18.28;41.12;100671.71;101649;1314;61127;-84
2022/12/13 10:42:16;;;;;;;;;;;;;;;18.27;40.74;100669.27;101518;1317;61305;-84
2022/12/13 10:44:42;;;;;;;;;;;;;;;18.24;40.73;100660.52;101436;1310;61196;-84
2022/12/13 10:47:15;;;;;;;;;;;;;;;18.23;40.77;100657.77;102549;1318;59335;-84
2022/12/13 10:49:47;;;;;;;;;;;;;;;18.23;40.57;100652.58;101550;1316;61324;-84
2022/12/13 10:52:38;;;;;;;;;;;;;;;18.24;40.60;100653.75;101559;1310;72930;-84
2022/12/13 10:55:05;;;;;;;;;;;;;;;18.26;40.57;100652.23;101513;1310;74723;-84
2022/12/13 10:57:30;;;;;;;;;;;;;;;18.27;40.54;100652.68;101702;1317;61729;-83
2022/12/13 10:59:57;;;;;;;;;;;;;;;18.27;40.51;100650.90;101576;1310;61372;-83
2022/12/13 11:02:30;;;;;;;;;;;;;;;18.25;40.34;100653.55;101299;1310;59936;-84
2022/12/13 11:04:57;;;;;;;;;;;;;;;18.21;40.32;100650.94;101438;1310;74650;-82
2022/12/13 11:07:23;;;;;;;;;;;;;;;18.12;40.15;100652.40;102776;1317;61282;-84
2022/12/13 11:09:49;;;;;;;;;;;;;;;18.01;39.94;100652.13;102834;1326;59556;-84
2022/12/13 11:12:15;;;;;;;;;;;;;;;17.97;39.91;100653.44;102827;1317;59866;-83
2022/12/13 11:14:54;;;;;;;;;;;;;;;17.94;39.93;100646.14;102897;1310;59324;-83
2022/12/13 11:17:26;;;;;;;;;;;;;;;17.89;39.80;100646.41;102941;1320;60713;-83
2022/12/13 11:19:55;;;;;;;;;;;;;;;17.86;39.77;100640.52;102857;1310;60300;-83
2022/12/13 11:22:31;;;;;;;;;;;;;;;17.84;39.58;100643.86;101630;1317;72528;-83
2022/12/13 11:25:00;;;;;;;;;;;;;;;17.82;39.66;100641.34;101388;1320;73308;-82
2022/12/13 11:27:46;;;;;;;;;;;;;;;17.82;39.31;100636.15;102868;1316;61014;-82
2022/12/13 11:30:18;;;;;;;;;;;;;;;17.84;39.02;100634.77;101514;1317;62408;-82
2022/12/13 11:32:50;;;;;;;;;;;;;;;17.87;38.90;100635.88;102286;1317;74092;-82
2022/12/13 11:35:20;;;;;;;;;;;;;;;17.90;38.85;100638.01;101603;1317;74849;-82
2022/12/13 11:37:59;;;;;;;;;;;;;;;17.96;38.57;100640.90;101553;1310;59979;-82
2022/12/13 11:40:26;;;;;;;;;;;;;;;18.00;38.59;100639.40;101437;1309;61286;-82
2022/12/13 11:42:58;;;;;;;;;;;;;;;18.04;38.69;100642.36;101459;1310;72563;-83
2022/12/13 11:45:25;;;;;;;;;;;;;;;18.08;38.68;100641.20;101567;1314;75598;-83
2022/12/13 11:47:54;;;;;;;;;;;;;;;18.08;38.63;100637.42;101549;1313;61059;-84
2022/12/13 11:50:21;;;;;;;;;;;;;;;18.07;38.56;100635.77;101641;1317;61200;-82
2022/12/13 11:52:53;;;;;;;;;;;;;;;18.04;38.60;100633.08;101602;1310;73577;-83
2022/12/13 11:55:31;;;;;;;;;;;;;;;18.02;38.65;100634.27;101497;1319;73182;-83
2022/12/13 11:58:05;;;;;;;;;;;;;;;18.02;38.58;100633.77;101523;1310;61380;-85
2022/12/13 12:00:34;;;;;;;;;;;;;;;18.00;38.40;100634.20;101519;1310;61840;-84
2022/12/13 12:03:11;;;;;;;;;;;;;;;17.95;38.48;100634.53;101455;1313;72693;-85
2022/12/13 12:05:37;;;;;;;;;;;;;;;17.85;38.45;100636.87;101458;1310;75696;-84
2022/12/13 12:08:05;;;;;;;;;;;;;;;17.79;38.47;100632.60;101386;1327;61240;-84
2022/12/13 12:10:33;;;;;;;;;;;;;;;17.72;38.40;100630.48;101471;1320;61418;-83
2022/12/13 12:13:04;;;;;;;;;;;;;;;17.66;38.48;100636.40;101303;1324;72110;-83
2022/12/13 12:15:31;;;;;;;;;;;;;;;17.64;38.56;100636.67;102986;1319;74353;-83
2022/12/13 12:17:57;;;;;;;;;;;;;;;17.64;38.71;100634.55;102968;1319;60071;-84
2022/12/13 12:20:27;;;;;;;;;;;;;;;17.64;38.66;100634.93;102993;1318;59098;-83
2022/12/13 12:23:12;;;;;;;;;;;;;;;17.65;38.80;100636.30;103036;1318;72397;-83
2022/12/13 12:25:41;;;;;;;;;;;;;;;17.67;38.70;100636.52;102696;1318;75503;-84
2022/12/13 12:28:11;;;;;;;;;;;;;;;17.65;38.52;100635.41;102930;1326;59181;-84
2022/12/13 12:30:40;;;;;;;;;;;;;;;17.65;38.57;100637.14;101974;1320;61283;-83
2022/12/13 12:33:10;;;;;;;;;;;;;;;17.66;38.44;100639.93;102085;1316;71604;-83
2022/12/13 12:35:54;;;;;;;;;;;;;;;17.66;38.40;100644.41;102968;1328;75623;-83
2022/12/13 12:38:22;;;;;;;;;;;;;;;17.66;38.48;100646.34;101917;1317;61585;-83
2022/12/13 12:40:56;;;;;;;;;;;;;;;17.67;38.60;100654.48;102115;1316;60032;-83
2022/12/13 12:43:24;;;;;;;;;;;;;;;17.66;38.49;100652.04;102043;1318;73771;-84
2022/12/13 12:45:59;;;;;;;;;;;;;;;17.66;38.47;100653.67;102049;1318;74784;-83
2022/12/13 12:48:27;;;;;;;;;;;;;;;17.67;38.56;100652.36;101978;1316;61319;-82
2022/12/13 12:51:00;;;;;;;;;;;;;;;17.70;38.43;100655.95;101962;1313;61307;-82
2022/12/13 12:53:46;;;;;;;;;;;;;;;17.73;38.43;100658.05;101974;1320;73658;-84
2022/12/13 12:56:11;;;;;;;;;;;;;;;17.79;38.35;100655.39;101964;1320;75330;-85
2022/12/13 12:58:57;;;;;;;;;;;;;;;17.84;38.41;100655.10;102051;1310;61298;-83